Time;durP1;ratioP1;P1;durP2;ratioP2;P2;SDS_P1;SDS_P2;PMS_P1;PMS_P2;Temp;Humidity;BMP_temperature;BMP_pressure;BME280_temperature;BME280_humidity;BME280_pressure;Samples;Min_cycle;Max_cycle;Signal;HPM_P1;HPM_P2
2022/11/17 00:01:07;;;;;;;5.30;2.88;;;;;;;9.97;53.48;100082.41;4953227;28;119957;-79
2022/11/17 00:03:33;;;;;;;6.55;3.30;;;;;;;9.98;54.04;100083.94;4944903;28;121824;-77
2022/11/17 00:06:03;;;;;;;6.00;3.17;;;;;;;9.88;53.98;100067.97;4945423;28;120720;-78
2022/11/17 00:08:30;;;;;;;6.05;2.72;;;;;;;9.86;54.01;100073.91;4929603;28;121627;-78
2022/11/17 00:11:01;;;;;;;4.60;2.70;;;;;;;9.88;54.38;100082.41;4950076;28;122095;-78
2022/11/17 00:16:13;;;;;;;6.40;2.78;;;;;;;9.89;54.30;100089.41;4943241;28;121239;-78
2022/11/17 00:21:25;;;;;;;5.30;2.90;;;;;;;9.77;55.33;100066.47;4945482;28;124011;-78
2022/11/17 00:23:52;;;;;;;6.75;2.95;;;;;;;9.76;55.22;100062.22;4910174;28;123083;-78
2022/11/17 00:26:20;;;;;;;5.82;2.90;;;;;;;9.79;55.58;100060.53;4945590;28;119653;-78
2022/11/17 00:28:50;;;;;;;6.50;3.22;;;;;;;9.68;55.61;100039.09;4961142;28;119639;-78
2022/11/17 00:34:06;;;;;;;6.50;3.63;;;;;;;9.72;56.09;100052.66;4948293;28;119848;-78
2022/11/17 00:36:36;;;;;;;6.50;3.20;;;;;;;9.73;55.91;100049.44;4944218;28;121179;-79
2022/11/17 00:39:02;;;;;;;6.40;3.27;;;;;;;9.75;56.26;100040.78;4961686;28;119530;-79
2022/11/17 00:41:28;;;;;;;5.82;3.25;;;;;;;9.80;56.04;100038.16;4929934;28;121879;-78
2022/11/17 00:43:54;;;;;;;5.85;3.33;;;;;;;9.83;55.73;100048.19;4908427;28;122590;-77
2022/11/17 00:46:19;;;;;;;7.20;3.60;;;;;;;9.87;55.51;100044.53;4944261;28;120188;-78
2022/11/17 00:49:07;;;;;;;5.93;3.22;;;;;;;9.93;55.65;100031.72;4942535;28;120394;-78
2022/11/17 00:51:33;;;;;;;6.63;3.30;;;;;;;9.99;55.34;100032.63;4944455;28;120268;-79
2022/11/17 00:53:59;;;;;;;6.75;3.20;;;;;;;10.00;54.73;100017.72;4944910;28;119818;-78
2022/11/17 00:56:25;;;;;;;5.53;3.35;;;;;;;10.03;54.73;100034.00;4949182;28;120281;-78
2022/11/17 00:58:51;;;;;;;6.60;3.22;;;;;;;10.00;54.74;100018.47;4922973;28;121225;-77
2022/11/17 01:01:18;;;;;;;5.53;3.10;;;;;;;10.04;54.55;100023.78;4941893;28;122194;-78
2022/11/17 01:03:44;;;;;;;7.55;3.33;;;;;;;10.06;54.43;100011.16;4957172;28;121130;-77
2022/11/17 01:06:12;;;;;;;6.28;3.00;;;;;;;10.09;55.37;100014.94;4943065;28;119832;-77
2022/11/17 01:08:38;;;;;;;5.85;3.10;;;;;;;10.14;54.54;100014.31;4955134;28;120455;-78
2022/11/17 01:11:05;;;;;;;5.40;3.20;;;;;;;10.10;54.92;100006.25;4925574;28;122558;-78
2022/11/17 01:13:31;;;;;;;6.03;3.33;;;;;;;10.19;54.88;100010.19;4940796;28;119845;-78
2022/11/17 01:16:08;;;;;;;6.23;3.40;;;;;;;10.19;54.17;100008.22;4941439;28;120422;-78
2022/11/17 01:18:34;;;;;;;5.60;3.20;;;;;;;10.25;54.63;100005.63;4944636;28;121818;-78
2022/11/17 01:21:12;;;;;;;6.78;3.30;;;;;;;10.20;54.10;100004.25;4942301;28;122075;-78
2022/11/17 01:23:39;;;;;;;6.47;3.30;;;;;;;10.27;54.51;100006.66;4940258;28;120215;-78
2022/11/17 01:26:11;;;;;;;6.20;3.20;;;;;;;10.32;54.57;100006.03;4940106;28;120351;-78
2022/11/17 01:28:37;;;;;;;8.15;3.72;;;;;;;10.30;54.45;99997.53;4941135;28;120113;-78
2022/11/17 01:31:06;;;;;;;6.07;3.63;;;;;;;10.38;54.24;99998.69;4924671;28;123251;-78
2022/11/17 01:33:32;;;;;;;5.63;3.40;;;;;;;10.41;54.47;99992.28;4939687;28;119952;-78
2022/11/17 01:36:06;;;;;;;6.80;3.50;;;;;;;10.32;54.13;99978.63;4939784;28;122305;-78
2022/11/17 01:38:56;;;;;;;7.72;3.95;;;;;;;10.42;54.50;99985.59;4944088;28;121041;-77
2022/11/17 01:41:24;;;;;;;7.30;3.80;;;;;;;10.45;54.42;99986.63;4940625;28;120940;-78
2022/11/17 01:44:17;;;;;;;7.18;3.55;;;;;;;10.45;53.91;99984.66;4937417;28;121755;-78
2022/11/17 01:46:43;;;;;;;7.32;3.72;;;;;;;10.39;54.22;99972.78;4923381;28;120573;-78
2022/11/17 01:49:24;;;;;;;8.07;3.72;;;;;;;10.43;54.27;99970.66;4936704;28;120347;-79
2022/11/17 01:52:00;;;;;;;6.87;3.90;;;;;;;10.42;54.03;99971.88;4939692;28;121259;-78
2022/11/17 01:54:27;;;;;;;6.97;3.60;;;;;;;10.38;53.67;99965.78;4941723;28;120181;-79
2022/11/17 01:57:01;;;;;;;8.40;4.07;;;;;;;10.38;54.08;99954.81;4944913;28;120091;-78
2022/11/17 01:59:40;;;;;;;7.13;4.25;;;;;;;10.42;54.77;99944.47;4939642;28;120299;-78
2022/11/17 02:02:06;;;;;;;5.77;3.80;;;;;;;10.40;54.23;99935.16;4946388;28;120554;-78
2022/11/17 02:05:06;;;;;;;6.40;3.78;;;;;;;10.45;53.22;99943.53;4939249;28;123097;-78
2022/11/17 02:07:41;;;;;;;6.60;3.57;;;;;;;10.33;53.20;99919.06;4943752;28;119754;-77
2022/11/17 02:10:07;;;;;;;7.53;3.88;;;;;;;10.31;53.06;99927.00;4945240;28;119931;-78
2022/11/17 02:12:35;;;;;;;6.60;3.70;;;;;;;10.26;52.75;99936.63;4925032;28;123115;-77
2022/11/17 02:15:01;;;;;;;7.50;3.60;;;;;;;10.18;52.50;99921.75;4923769;28;121055;-78
2022/11/17 02:17:37;;;;;;;6.57;3.77;;;;;;;10.14;53.23;99919.16;4941306;28;120576;-78
2022/11/17 02:20:16;;;;;;;6.45;3.72;;;;;;;10.17;53.40;99933.91;4925311;28;121733;-78
2022/11/17 02:23:19;;;;;;;6.88;3.70;;;;;;;10.13;53.55;99922.34;4944397;28;121770;-78
2022/11/17 02:26:01;;;;;;;5.53;3.60;;;;;;;10.12;53.76;99910.63;4930665;28;119966;-78
2022/11/17 02:28:34;;;;;;;5.82;3.50;;;;;;;10.13;53.60;99919.63;4941820;28;120168;-77
2022/11/17 02:31:32;;;;;;;7.18;3.80;;;;;;;10.15;52.95;99925.38;4941698;28;121115;-78
2022/11/17 02:34:30;;;;;;;7.25;3.80;;;;;;;10.13;53.37;99922.34;4942579;28;120073;-77
2022/11/17 02:37:19;;;;;;;5.78;3.90;;;;;;;10.14;53.02;99916.41;4938551;28;119575;-78
2022/11/17 02:40:19;;;;;;;7.70;4.00;;;;;;;10.15;52.79;99914.44;4944147;28;120029;-78
2022/11/17 02:45:46;;;;;;;6.60;4.30;;;;;;;10.12;53.20;99902.41;4940121;28;120063;-78
2022/11/17 02:48:18;;;;;;;8.07;4.15;;;;;;;10.14;52.91;99899.97;4945056;28;119856;-78
2022/11/17 02:50:47;;;;;;;7.20;4.00;;;;;;;10.14;53.40;99899.22;4933826;28;120141;-80
2022/11/17 02:53:14;;;;;;;8.80;4.68;;;;;;;10.20;52.95;99888.38;4947997;28;121421;-78
2022/11/17 02:55:40;;;;;;;7.68;4.25;;;;;;;10.19;53.01;99889.63;4943832;28;120406;-78
2022/11/17 02:58:10;;;;;;;7.63;4.20;;;;;;;10.17;52.80;99890.06;4929511;28;120109;-78
2022/11/17 03:00:48;;;;;;;10.70;4.40;;;;;;;10.18;53.95;99888.84;4943826;28;120533;-78
2022/11/17 03:03:42;;;;;;;10.70;4.40;;;;;;;10.20;53.63;99878.19;4944034;28;121266;-78
2022/11/17 03:06:35;;;;;;;9.98;4.50;;;;;;;10.18;53.58;99877.91;4947232;28;120036;-77
2022/11/17 03:09:33;;;;;;;7.45;4.20;;;;;;;10.16;53.66;99881.06;4916428;28;119727;-79
2022/11/17 03:12:07;;;;;;;8.63;4.80;;;;;;;10.18;53.90;99869.66;4944029;28;121075;-78
2022/11/17 03:15:00;;;;;;;8.55;4.70;;;;;;;10.16;53.78;99864.63;4948564;28;119864;-78
2022/11/17 03:17:30;;;;;;;10.63;5.03;;;;;;;10.22;53.63;99872.25;4935172;28;120518;-79
2022/11/17 03:20:07;;;;;;;7.88;4.82;;;;;;;10.21;53.27;99871.50;4929254;28;121693;-78
2022/11/17 03:22:58;;;;;;;8.38;4.65;;;;;;;10.19;53.90;99867.69;4945708;28;121510;-78
2022/11/17 03:25:32;;;;;;;10.50;5.10;;;;;;;10.15;53.51;99865.09;4933405;28;120408;-78
2022/11/17 03:28:05;;;;;;;9.25;4.90;;;;;;;10.14;53.88;99860.84;4946117;28;120367;-79
2022/11/17 03:30:34;;;;;;;9.90;5.00;;;;;;;10.18;54.08;99869.66;4942541;28;122278;-78
2022/11/17 03:33:07;;;;;;;11.07;5.03;;;;;;;10.19;54.28;99864.94;4942901;28;122405;-79
2022/11/17 03:35:38;;;;;;;8.40;4.70;;;;;;;10.20;55.31;99872.69;4947207;28;120138;-78
2022/11/17 03:38:09;;;;;;;11.98;5.22;;;;;;;10.21;55.12;99862.53;4950195;28;120031;-78
2022/11/17 03:40:40;;;;;;;8.23;4.77;;;;;;;10.14;54.87;99849.88;4929093;28;120333;-78
2022/11/17 03:43:08;;;;;;;7.65;4.72;;;;;;;10.14;54.24;99849.88;4945586;28;119916;-78
2022/11/17 03:45:38;;;;;;;7.70;4.97;;;;;;;10.12;53.97;99847.63;4927848;28;121118;-77
2022/11/17 03:48:15;;;;;;;7.70;4.97;;;;;;;10.03;54.15;99849.66;4959885;28;120584;-79
2022/11/17 03:51:14;;;;;;;7.57;4.93;;;;;;;9.92;54.10;99841.19;4946893;28;119963;-78
2022/11/17 03:53:41;;;;;;;8.70;4.78;;;;;;;9.78;53.55;99843.41;4960427;28;119960;-78
2022/11/17 03:56:28;;;;;;;9.35;5.60;;;;;;;9.68;54.59;99838.44;4927847;28;120108;-78
2022/11/17 03:59:00;;;;;;;10.55;6.18;;;;;;;9.54;55.04;99837.16;4945622;28;119833;-78
2022/11/17 04:01:28;;;;;;;9.23;5.70;;;;;;;9.54;55.82;99839.88;4928738;28;120271;-78
2022/11/17 04:03:54;;;;;;;11.27;5.75;;;;;;;9.45;55.54;99837.16;4943734;28;119765;-78
2022/11/17 04:06:19;;;;;;;8.38;5.50;;;;;;;9.44;55.54;99836.41;4927987;28;120115;-78
2022/11/17 04:08:45;;;;;;;8.23;5.60;;;;;;;9.41;55.87;99842.06;4913151;28;119880;-78
2022/11/17 04:16:39;;;;;;;11.63;6.32;;;;;;;9.37;56.31;99819.56;4942614;28;120293;-78
2022/11/17 04:19:11;;;;;;;10.05;6.00;;;;;;;9.44;56.51;99830.19;4940606;28;121099;-78
2022/11/17 04:21:37;;;;;;;8.55;6.03;;;;;;;9.39;55.65;99823.34;4931625;28;122903;-78
2022/11/17 04:24:03;;;;;;;14.60;6.50;;;;;;;9.46;56.01;99833.22;4942746;28;120017;-78
2022/11/17 04:29:13;;;;;;;13.98;6.55;;;;;;;9.48;56.18;99833.53;4945551;28;120189;-78
2022/11/17 04:31:38;;;;;;;14.88;7.00;;;;;;;9.53;56.30;99821.94;4923904;28;121948;-79
2022/11/17 04:34:05;;;;;;;13.35;7.22;;;;;;;9.51;55.67;99802.50;4941731;28;122270;-78
2022/11/17 04:36:36;;;;;;;17.35;8.05;;;;;;;9.51;56.37;99810.69;4928548;28;120310;-78
2022/11/17 04:39:02;;;;;;;12.30;7.10;;;;;;;9.46;56.35;99800.34;4942667;28;119752;-78
2022/11/17 04:44:16;;;;;;;11.82;7.15;;;;;;;9.65;57.09;99803.78;4948029;28;120981;-78
2022/11/17 04:46:45;;;;;;;14.70;7.90;;;;;;;9.65;56.40;99793.56;4944632;28;120069;-78
2022/11/17 04:49:12;;;;;;;11.67;7.30;;;;;;;9.63;56.83;99782.34;4942999;28;120692;-78
2022/11/17 04:51:38;;;;;;;9.27;7.20;;;;;;;9.65;56.72;99795.56;4928503;28;122086;-77
2022/11/17 04:54:05;;;;;;;11.65;7.50;;;;;;;9.68;56.43;99800.09;4943948;28;122858;-78
2022/11/17 04:56:31;;;;;;;10.20;7.30;;;;;;;9.63;56.73;99798.00;4913173;28;119955;-77
2022/11/17 04:58:57;;;;;;;12.83;7.67;;;;;;;9.68;57.16;99800.84;4945359;28;119959;-78
2022/11/17 05:01:24;;;;;;;11.10;7.60;;;;;;;9.72;56.56;99812.41;4942979;28;120095;-78
2022/11/17 05:03:52;;;;;;;11.88;8.15;;;;;;;9.68;56.71;99798.13;4946507;28;120032;-78
2022/11/17 05:06:33;;;;;;;10.07;7.88;;;;;;;9.61;56.53;99795.72;4948748;28;120282;-79
2022/11/17 05:09:02;;;;;;;11.33;8.00;;;;;;;9.61;56.81;99794.97;4958541;28;120082;-77
2022/11/17 05:14:16;;;;;;;11.70;8.20;;;;;;;9.51;56.59;99783.31;4942848;28;121767;-79
2022/11/17 05:19:28;;;;;;;12.73;7.73;;;;;;;9.45;56.71;99776.94;4929186;28;120478;-78
2022/11/17 05:21:54;;;;;;;17.07;9.10;;;;;;;9.42;56.98;99775.16;4928622;28;121983;-78
2022/11/17 05:24:20;;;;;;;14.25;8.77;;;;;;;9.36;57.09;99779.75;4942650;28;120239;-78
2022/11/17 05:26:47;;;;;;;11.57;8.00;;;;;;;9.40;57.13;99770.13;4946946;28;120589;-77
2022/11/17 05:29:17;;;;;;;9.98;7.88;;;;;;;9.41;57.19;99776.38;4932459;28;120429;-78
2022/11/17 05:31:43;;;;;;;10.77;7.75;;;;;;;9.44;57.43;99769.97;4921388;28;120181;-78
2022/11/17 05:34:11;;;;;;;13.27;8.37;;;;;;;9.30;56.60;99755.00;4939671;28;122674;-79
2022/11/17 05:36:38;;;;;;;11.40;8.15;;;;;;;9.33;57.45;99759.53;4945551;28;120003;-79
2022/11/17 05:39:04;;;;;;;14.20;8.05;;;;;;;9.31;56.93;99767.44;4944608;28;120055;-78
2022/11/17 05:41:30;;;;;;;10.85;8.00;;;;;;;9.22;57.43;99765.50;4945594;28;119715;-78
2022/11/17 05:43:57;;;;;;;14.15;8.70;;;;;;;9.27;57.40;99755.91;4944288;28;120396;-78
2022/11/17 05:46:23;;;;;;;11.50;8.00;;;;;;;9.23;57.74;99750.63;4944688;28;119963;-78
2022/11/17 05:48:49;;;;;;;11.47;7.93;;;;;;;9.31;57.85;99766.69;4944949;28;119864;-78
2022/11/17 05:51:22;;;;;;;12.95;8.23;;;;;;;9.26;57.83;99748.19;4944284;28;120064;-78
2022/11/17 05:53:47;;;;;;;14.95;8.20;;;;;;;9.33;57.70;99753.31;4944188;28;122565;-78
2022/11/17 05:56:22;;;;;;;16.05;7.88;;;;;;;9.39;57.18;99762.38;4944150;28;120315;-78
2022/11/17 05:58:52;;;;;;;10.85;6.88;;;;;;;9.33;56.81;99761.50;4944467;28;120287;-78
2022/11/17 06:01:19;;;;;;;8.48;6.10;;;;;;;9.27;55.91;99764.13;4943611;28;121235;-78
2022/11/17 06:03:50;;;;;;;8.32;5.65;;;;;;;9.14;55.87;99753.38;4945175;28;119699;-78
2022/11/17 06:06:16;;;;;;;8.30;5.60;;;;;;;9.15;56.01;99776.78;4944119;28;120936;-78
2022/11/17 06:08:42;;;;;;;7.95;5.38;;;;;;;9.13;56.27;99762.06;4957805;28;122871;-79
2022/11/17 06:11:11;;;;;;;8.65;5.40;;;;;;;9.19;56.08;99766.41;4948104;28;119718;-78
2022/11/17 06:13:37;;;;;;;9.25;5.57;;;;;;;9.19;56.38;99760.94;4942552;28;123094;-79
2022/11/17 06:16:19;;;;;;;9.68;5.32;;;;;;;9.26;56.74;99748.94;4937308;28;120564;-78
2022/11/17 06:19:08;;;;;;;10.40;5.65;;;;;;;9.30;56.73;99755.00;4933140;28;120731;-78
2022/11/17 06:21:35;;;;;;;13.23;6.60;;;;;;;9.38;56.97;99749.94;4943286;28;121849;-78
2022/11/17 06:24:03;;;;;;;10.73;6.47;;;;;;;9.39;57.00;99738.50;4943004;28;121080;-78
2022/11/17 06:26:28;;;;;;;9.63;5.90;;;;;;;9.36;57.24;99741.44;4911466;28;121747;-78
2022/11/17 06:28:57;;;;;;;12.68;6.30;;;;;;;9.42;58.14;99753.25;4934263;28;123181;-78
2022/11/17 06:31:26;;;;;;;11.20;6.07;;;;;;;9.43;57.60;99752.03;4936585;28;121473;-78
2022/11/17 06:33:52;;;;;;;12.87;6.10;;;;;;;9.38;58.38;99741.72;4947030;28;121424;-78
2022/11/17 06:36:18;;;;;;;9.65;6.30;;;;;;;9.39;57.63;99752.19;4926793;28;120189;-78
2022/11/17 06:38:43;;;;;;;10.65;6.10;;;;;;;9.40;57.30;99733.78;4942196;28;119649;-78
2022/11/17 06:41:09;;;;;;;12.67;6.37;;;;;;;9.42;57.49;99753.25;4926594;28;123178;-79
2022/11/17 06:43:35;;;;;;;9.97;6.13;;;;;;;9.41;58.41;99738.81;4927325;28;119761;-78
2022/11/17 06:46:03;;;;;;;9.83;6.10;;;;;;;9.48;58.02;99741.22;4940738;28;119949;-78
2022/11/17 06:48:29;;;;;;;8.90;6.03;;;;;;;9.55;57.40;99740.09;4926271;28;119879;-77
2022/11/17 06:50:55;;;;;;;11.70;6.63;;;;;;;9.58;57.49;99749.38;4934398;28;119920;-78
2022/11/17 06:53:27;;;;;;;9.73;6.03;;;;;;;9.51;57.57;99723.84;4939100;28;119555;-79
2022/11/17 06:56:01;;;;;;;11.07;6.10;;;;;;;9.56;57.29;99744.34;4935756;28;120049;-78
2022/11/17 06:58:27;;;;;;;9.55;5.63;;;;;;;9.47;57.27;99734.22;4941136;28;120508;-79
2022/11/17 07:00:53;;;;;;;13.18;5.93;;;;;;;9.45;57.15;99735.91;4941409;28;122685;-78
2022/11/17 07:03:20;;;;;;;10.38;5.97;;;;;;;9.43;56.59;99736.34;4925383;28;120135;-77
2022/11/17 07:05:46;;;;;;;9.43;5.37;;;;;;;9.38;56.86;99733.50;4910029;28;121760;-78
2022/11/17 07:08:11;;;;;;;9.43;5.50;;;;;;;9.39;56.86;99740.50;4939730;28;122690;-78
2022/11/17 07:10:37;;;;;;;8.60;5.27;;;;;;;9.31;56.49;99734.63;4918429;28;120138;-78
2022/11/17 07:13:03;;;;;;;9.15;5.60;;;;;;;9.28;56.75;99734.78;4941460;28;121664;-79
2022/11/17 07:15:29;;;;;;;10.45;5.80;;;;;;;9.35;56.94;99745.38;4937824;28;122426;-78
2022/11/17 07:18:06;;;;;;;11.02;5.72;;;;;;;9.35;57.50;99739.91;4947158;28;120161;-78
2022/11/17 07:20:32;;;;;;;10.17;5.80;;;;;;;9.41;57.22;99733.31;4942688;28;120329;-78
2022/11/17 07:22:58;;;;;;;10.70;5.77;;;;;;;9.39;57.77;99745.97;4926451;28;121028;-78
2022/11/17 07:25:24;;;;;;;9.07;5.50;;;;;;;9.43;57.38;99735.59;4926697;28;120076;-78
2022/11/17 07:27:56;;;;;;;9.53;5.97;;;;;;;9.49;57.88;99728.28;4942145;28;119722;-78
2022/11/17 07:30:22;;;;;;;11.40;6.15;;;;;;;9.61;58.00;99746.44;4944140;28;120330;-79
2022/11/17 07:32:48;;;;;;;12.27;6.82;;;;;;;9.68;58.68;99750.81;4927806;28;122433;-78
2022/11/17 07:35:14;;;;;;;11.90;6.30;;;;;;;9.71;58.14;99738.94;4919846;28;123184;-78
2022/11/17 07:37:40;;;;;;;10.32;6.18;;;;;;;9.68;58.17;99726.94;4942098;28;121233;-78
2022/11/17 07:40:07;;;;;;;10.13;6.50;;;;;;;9.69;58.38;99736.66;4962687;28;120387;-77
2022/11/17 07:42:32;;;;;;;10.63;6.37;;;;;;;9.64;57.88;99718.13;4942608;28;120800;-78
2022/11/17 07:44:58;;;;;;;9.93;6.05;;;;;;;9.66;57.64;99731.34;4941603;28;121828;-78
2022/11/17 07:47:24;;;;;;;10.68;6.30;;;;;;;9.65;57.16;99729.84;4940379;28;120357;-78
2022/11/17 07:49:50;;;;;;;9.90;6.63;;;;;;;9.62;57.66;99731.53;4940598;28;119496;-79
2022/11/17 07:52:15;;;;;;;11.13;6.50;;;;;;;9.65;57.14;99736.06;4943755;28;119869;-78
2022/11/17 07:54:41;;;;;;;13.03;6.20;;;;;;;9.64;57.13;99731.81;4929715;28;120437;-79
2022/11/17 07:57:07;;;;;;;11.37;6.23;;;;;;;9.63;57.45;99724.84;4945691;28;119709;-78
2022/11/17 07:59:56;;;;;;;10.18;6.38;;;;;;;9.60;56.67;99719.53;4936996;28;119607;-78
2022/11/17 08:02:21;;;;;;;9.70;6.20;;;;;;;9.64;57.14;99729.09;4932141;28;120041;-78
2022/11/17 08:04:47;;;;;;;9.43;6.50;;;;;;;9.61;56.63;99719.06;4930660;28;120201;-78
2022/11/17 08:07:19;;;;;;;10.90;7.10;;;;;;;9.52;56.51;99711.69;4949524;28;119893;-77
2022/11/17 08:09:44;;;;;;;9.50;6.73;;;;;;;9.59;56.03;99723.50;4931776;28;120414;-78
2022/11/17 08:12:10;;;;;;;12.90;7.23;;;;;;;9.46;56.19;99718.25;4939209;28;121522;-78
2022/11/17 08:14:36;;;;;;;12.13;7.03;;;;;;;9.52;56.24;99722.63;4938639;28;121000;-78
2022/11/17 08:17:01;;;;;;;11.80;8.10;;;;;;;9.40;56.44;99720.13;4940455;28;121483;-78
2022/11/17 08:19:27;;;;;;;11.18;8.00;;;;;;;9.45;56.29;99722.97;4940184;28;119948;-78
2022/11/17 08:21:53;;;;;;;11.00;8.20;;;;;;;9.55;56.29;99726.41;4926800;28;122575;-78
2022/11/17 08:24:19;;;;;;;13.60;8.70;;;;;;;9.51;56.46;99720.38;4939461;28;120087;-78
2022/11/17 08:26:44;;;;;;;15.27;10.00;;;;;;;9.59;56.69;99724.25;4942658;28;120041;-79
2022/11/17 08:29:20;;;;;;;12.88;9.20;;;;;;;9.64;56.45;99717.38;4939588;28;120261;-78
2022/11/17 08:31:46;;;;;;;14.23;9.27;;;;;;;9.66;55.86;99718.44;4925540;28;121764;-78
2022/11/17 08:34:12;;;;;;;16.60;10.65;;;;;;;9.69;55.96;99709.28;4955407;28;120203;-78
2022/11/17 08:36:39;;;;;;;14.27;10.02;;;;;;;9.74;55.54;99710.63;4957342;28;120247;-78
2022/11/17 08:39:05;;;;;;;18.90;11.15;;;;;;;9.66;55.65;99704.72;4941977;28;121661;-78
2022/11/17 08:41:31;;;;;;;18.60;11.80;;;;;;;9.73;56.40;99715.34;4939909;28;123085;-78
2022/11/17 08:43:56;;;;;;;18.85;12.07;;;;;;;9.75;55.69;99706.66;4944205;28;119687;-78
2022/11/17 08:46:22;;;;;;;22.55;11.93;;;;;;;9.78;56.25;99703.75;4957901;28;120059;-78
2022/11/17 08:48:48;;;;;;;16.63;11.35;;;;;;;9.76;55.44;99719.13;4938565;28;120304;-78
2022/11/17 08:51:16;;;;;;;16.33;11.90;;;;;;;9.64;55.91;99690.75;4923039;28;120647;-79
2022/11/17 08:53:41;;;;;;;14.20;10.83;;;;;;;9.68;55.14;99696.06;4957863;28;120229;-77
2022/11/17 08:56:09;;;;;;;13.93;10.70;;;;;;;9.70;55.27;99710.03;4958181;28;119966;-78
2022/11/17 08:58:43;;;;;;;14.48;11.07;;;;;;;9.61;55.38;99715.56;4941807;28;120464;-78
2022/11/17 09:01:10;;;;;;;11.70;10.38;;;;;;;9.61;55.61;99705.38;4943995;28;120490;-78
2022/11/17 09:03:36;;;;;;;13.70;10.87;;;;;;;9.57;55.75;99706.78;4942903;28;119565;-79
2022/11/17 09:06:05;;;;;;;15.60;11.30;;;;;;;9.62;55.93;99709.63;4945236;28;119924;-78
2022/11/17 09:08:31;;;;;;;13.43;10.50;;;;;;;9.68;54.76;99707.75;4959691;28;120386;-78
2022/11/17 09:10:57;;;;;;;13.02;10.68;;;;;;;9.59;54.42;99709.81;4945230;28;120485;-78
2022/11/17 09:13:23;;;;;;;14.97;11.57;;;;;;;9.42;54.80;99707.47;4944710;28;120411;-79
2022/11/17 09:15:49;;;;;;;16.98;11.88;;;;;;;9.36;55.13;99711.31;4942401;28;119963;-79
2022/11/17 09:18:16;;;;;;;19.73;12.83;;;;;;;9.38;54.78;99723.31;4934134;28;122888;-78
2022/11/17 09:21:02;;;;;;;15.63;11.98;;;;;;;9.30;55.92;99727.63;4942011;28;120752;-78
2022/11/17 09:23:30;;;;;;;19.15;12.80;;;;;;;9.26;56.10;99715.34;4941341;28;120373;-78
2022/11/17 09:25:57;;;;;;;19.08;12.90;;;;;;;9.23;56.10;99711.56;4940876;28;120370;-79
2022/11/17 09:28:24;;;;;;;20.83;12.82;;;;;;;9.16;56.44;99700.94;4944677;28;120037;-78
2022/11/17 09:30:51;;;;;;;22.27;13.82;;;;;;;9.18;56.70;99720.38;4942601;28;120109;-79
2022/11/17 09:33:17;;;;;;;20.08;13.65;;;;;;;9.16;56.66;99722.81;4937182;28;122910;-78
2022/11/17 09:35:42;;;;;;;20.95;13.88;;;;;;;9.17;57.19;99725.09;4958102;28;120781;-78
2022/11/17 09:38:09;;;;;;;14.90;12.70;;;;;;;9.10;57.50;99706.28;4939019;28;120405;-77
2022/11/17 09:40:37;;;;;;;20.63;13.33;;;;;;;9.18;57.15;99704.72;4942072;28;121209;-79
2022/11/17 09:43:07;;;;;;;17.13;12.77;;;;;;;9.23;56.97;99704.09;4943901;28;119687;-78
2022/11/17 09:45:37;;;;;;;16.90;11.70;;;;;;;9.18;56.94;99695.75;4941353;28;121699;-78
2022/11/17 09:48:12;;;;;;;19.00;12.80;;;;;;;9.29;56.92;99698.75;4941905;28;121609;-77
2022/11/17 09:50:40;;;;;;;23.13;13.10;;;;;;;9.30;57.31;99715.94;4946745;28;119670;-77
2022/11/17 09:53:49;;;;;;;20.75;12.82;;;;;;;9.34;57.60;99703.59;4942438;28;123155;-78
2022/11/17 09:56:15;;;;;;;20.80;12.73;;;;;;;9.34;57.28;99711.78;4907258;28;119464;-78
2022/11/17 09:58:48;;;;;;;18.77;12.75;;;;;;;9.36;56.83;99700.38;4945932;28;119886;-78
2022/11/17 10:01:16;;;;;;;14.13;10.82;;;;;;;9.32;56.18;99699.78;4934515;28;121686;-78
2022/11/17 10:03:45;;;;;;;15.27;11.02;;;;;;;9.27;56.92;99694.97;4955596;28;120751;-78
2022/11/17 10:06:22;;;;;;;14.93;10.57;;;;;;;9.23;56.14;99687.69;4942865;28;120229;-78
2022/11/17 10:09:10;;;;;;;21.25;11.05;;;;;;;9.22;57.43;99701.81;4939414;28;120514;-78
2022/11/17 10:11:42;;;;;;;14.07;10.10;;;;;;;9.22;57.00;99686.16;4947608;28;120091;-78
2022/11/17 10:14:07;;;;;;;17.50;10.27;;;;;;;9.19;56.48;99681.59;4935175;28;120679;-78
2022/11/17 10:16:41;;;;;;;18.45;10.55;;;;;;;9.20;57.27;99696.03;4955273;28;121995;-78
2022/11/17 10:19:15;;;;;;;20.27;10.43;;;;;;;9.21;56.99;99676.44;4923282;28;121669;-78
2022/11/17 10:21:41;;;;;;;18.52;10.25;;;;;;;9.27;56.86;99675.81;4937171;28;120170;-78
2022/11/17 10:24:07;;;;;;;16.90;9.95;;;;;;;9.28;57.06;99689.03;4940928;28;120046;-79
2022/11/17 10:26:45;;;;;;;17.83;10.50;;;;;;;9.25;56.57;99686.47;4906958;28;122502;-78
2022/11/17 10:29:12;;;;;;;20.43;10.33;;;;;;;9.20;57.31;99685.84;4922661;28;121883;-78
2022/11/17 10:31:42;;;;;;;22.57;10.10;;;;;;;9.12;57.09;99671.03;4940481;28;119911;-78
2022/11/17 10:34:10;;;;;;;18.30;9.27;;;;;;;9.14;56.58;99676.78;4941071;28;119979;-78
2022/11/17 10:36:45;;;;;;;14.93;9.02;;;;;;;9.20;56.67;99677.66;4956667;28;119981;-78
2022/11/17 10:39:37;;;;;;;15.77;9.25;;;;;;;9.18;57.16;99650.00;4939867;28;120794;-78
2022/11/17 10:42:15;;;;;;;17.73;10.18;;;;;;;9.21;57.17;99656.50;4940889;28;120576;-78
2022/11/17 10:44:43;;;;;;;20.02;10.13;;;;;;;9.23;56.94;99663.06;4939542;28;119932;-78
2022/11/17 10:47:29;;;;;;;17.93;9.53;;;;;;;9.21;56.74;99670.94;4940878;28;121796;-78
2022/11/17 10:50:21;;;;;;;16.30;8.95;;;;;;;9.22;57.30;99672.47;4954282;28;119961;-78
2022/11/17 10:52:48;;;;;;;17.58;9.07;;;;;;;9.22;57.28;99677.94;4923340;28;119713;-78
2022/11/17 10:55:23;;;;;;;12.48;8.88;;;;;;;9.21;57.39;99687.38;4941263;28;120174;-79
2022/11/17 10:58:18;;;;;;;12.95;8.80;;;;;;;9.17;57.57;99680.56;4942042;28;121182;-79
2022/11/17 11:00:51;;;;;;;13.32;8.38;;;;;;;9.12;57.49;99679.22;4942033;28;120056;-78
2022/11/17 11:03:21;;;;;;;12.63;8.37;;;;;;;9.17;57.37;99664.91;4937392;28;120436;-77
2022/11/17 11:05:57;;;;;;;14.53;7.80;;;;;;;9.18;57.07;99660.19;4940002;28;119819;-78
2022/11/17 11:08:42;;;;;;;15.10;8.03;;;;;;;9.16;57.33;99655.19;4927312;28;120258;-77
2022/11/17 11:11:31;;;;;;;13.10;7.80;;;;;;;9.15;57.05;99645.47;4943380;28;120053;-79
2022/11/17 11:14:05;;;;;;;15.93;8.43;;;;;;;9.15;57.24;99648.19;4934850;28;119919;-78
2022/11/17 11:16:54;;;;;;;25.93;9.77;;;;;;;9.17;57.68;99632.06;4911660;28;119796;-78
2022/11/17 11:19:20;;;;;;;18.77;9.05;;;;;;;9.31;57.53;99646.28;4946373;28;119774;-78
2022/11/17 11:21:54;;;;;;;21.00;9.95;;;;;;;9.34;57.48;99637.91;4950241;28;119928;-78
2022/11/17 11:24:23;;;;;;;15.50;9.13;;;;;;;9.38;57.04;99643.94;4943426;28;119793;-78
2022/11/17 11:27:08;;;;;;;14.70;8.60;;;;;;;9.35;56.99;99636.69;4943549;28;120275;-78
2022/11/17 11:29:55;;;;;;;15.75;9.05;;;;;;;9.40;57.44;99632.53;4945295;28;119815;-78
2022/11/17 11:32:21;;;;;;;12.93;8.82;;;;;;;9.41;57.04;99639.53;4939639;28;120387;-77
2022/11/17 11:35:02;;;;;;;13.43;8.73;;;;;;;9.43;56.61;99645.28;4944483;28;119633;-78
2022/11/17 11:37:59;;;;;;;12.18;8.60;;;;;;;9.39;56.69;99650.19;4946787;28;121446;-78
2022/11/17 11:40:30;;;;;;;17.92;9.27;;;;;;;9.34;56.80;99646.13;4947287;28;120173;-78
2022/11/17 11:43:23;;;;;;;13.70;9.13;;;;;;;9.31;56.82;99646.28;4946851;28;119478;-78
2022/11/17 11:46:00;;;;;;;16.47;10.03;;;;;;;9.35;57.38;99655.06;4941032;28;119599;-78
2022/11/17 11:48:35;;;;;;;12.63;9.50;;;;;;;9.32;57.29;99639.59;4946790;28;120171;-78
2022/11/17 11:51:07;;;;;;;13.73;9.43;;;;;;;9.36;56.97;99651.88;4946811;28;119825;-78
2022/11/17 11:53:45;;;;;;;17.00;9.93;;;;;;;9.37;57.12;99644.41;4946016;28;119954;-78
2022/11/17 11:56:38;;;;;;;15.25;10.05;;;;;;;9.34;57.45;99626.19;4957550;28;119587;-78
2022/11/17 11:59:18;;;;;;;16.85;9.70;;;;;;;9.42;57.33;99647.25;4934056;28;120497;-78
2022/11/17 12:01:58;;;;;;;15.02;9.43;;;;;;;9.43;57.26;99640.56;4947202;28;120143;-79
2022/11/17 12:04:33;;;;;;;19.60;9.77;;;;;;;9.44;57.11;99646.78;4944714;28;120915;-78
2022/11/17 12:07:12;;;;;;;13.07;8.90;;;;;;;9.42;57.04;99654.72;4937279;28;120196;-78
2022/11/17 12:09:53;;;;;;;15.85;9.77;;;;;;;9.45;57.36;99651.03;4947554;28;120662;-79
2022/11/17 12:12:29;;;;;;;15.93;9.93;;;;;;;9.42;57.27;99647.25;4946512;28;121684;-78